createdAt,value
2022-09-16T00:00:46.406Z,97.66
2022-09-16T00:03:13.245Z,98.49
2022-09-16T00:05:47.135Z,99.23
2022-09-16T00:08:13.918Z,98.93
2022-09-16T00:10:40.548Z,98.15
2022-09-16T00:13:07.321Z,98.97
2022-09-16T00:15:33.888Z,98.02
2022-09-16T00:18:00.583Z,98.28
2022-09-16T00:20:27.228Z,97.64
2022-09-16T00:22:54.272Z,97.69
2022-09-16T00:25:20.874Z,98.63
2022-09-16T00:27:48.589Z,98.44
2022-09-16T00:30:15.426Z,99.17
2022-09-16T00:32:42.345Z,99.60
2022-09-16T00:35:09.350Z,99.09
2022-09-16T00:37:35.953Z,98.56
2022-09-16T00:40:02.836Z,98.23
2022-09-16T00:42:29.463Z,98.47
2022-09-16T00:45:01.119Z,98.92
2022-09-16T00:47:38.161Z,98.60
2022-09-16T00:50:13.981Z,99.35
2022-09-16T00:52:40.529Z,99.19
2022-09-16T00:55:09.026Z,99.14
2022-09-16T00:57:35.642Z,99.83
2022-09-16T01:00:02.474Z,99.70
2022-09-16T01:02:29.115Z,98.87
2022-09-16T01:04:57.646Z,98.94
2022-09-16T01:07:29.688Z,98.70
2022-09-16T01:09:56.314Z,99.33
2022-09-16T01:12:23.067Z,99.05
2022-09-16T01:14:49.797Z,98.60
2022-09-16T01:17:40.520Z,98.76
2022-09-16T01:20:28.691Z,98.93
2022-09-16T01:22:55.167Z,98.68
2022-09-16T01:25:39.164Z,99.38
2022-09-16T01:28:11.025Z,99.61
2022-09-16T01:30:57.942Z,98.42
2022-09-16T01:33:46.161Z,98.79
2022-09-16T01:36:36.943Z,98.36
2022-09-16T01:39:15.664Z,98.42
2022-09-16T01:41:50.911Z,98.73
2022-09-16T01:44:29.388Z,98.36
2022-09-16T01:47:29.678Z,98.91
2022-09-16T01:50:11.200Z,99.03
2022-09-16T01:52:46.448Z,98.63
2022-09-16T01:55:18.738Z,98.31
2022-09-16T01:57:56.188Z,98.66
2022-09-16T02:00:22.802Z,99.01
2022-09-16T02:02:50.857Z,98.34
2022-09-16T02:05:24.115Z,98.53
2022-09-16T02:07:52.926Z,98.12
2022-09-16T02:10:30.523Z,98.18
2022-09-16T02:13:00.196Z,98.99
2022-09-16T02:15:26.898Z,98.53
2022-09-16T02:17:59.954Z,98.84
2022-09-16T02:20:27.633Z,99.09
2022-09-16T02:23:01.049Z,99.62
2022-09-16T02:25:28.092Z,99.40
2022-09-16T02:27:54.733Z,99.57
2022-09-16T02:30:21.965Z,99.53
2022-09-16T02:33:00.393Z,99.82
2022-09-16T02:35:27.352Z,99.91
2022-09-16T02:38:07.025Z,99.53
2022-09-16T02:40:47.709Z,99.69
2022-09-16T02:43:14.326Z,99.13
2022-09-16T02:45:51.261Z,99.26
2022-09-16T02:48:38.057Z,99.84
2022-09-16T02:51:27.897Z,99.77
2022-09-16T02:54:10.398Z,99.92
2022-09-16T02:56:37.998Z,99.71
2022-09-16T02:59:05.907Z,99.73
2022-09-16T03:01:35.726Z,99.89
2022-09-16T03:04:03.088Z,99.11
2022-09-16T03:06:29.823Z,99.07
2022-09-16T03:08:58.501Z,99.47
2022-09-16T03:11:31.437Z,99.28
2022-09-16T03:14:35.457Z,99.44
2022-09-16T03:17:37.550Z,99.50
2022-09-16T03:20:25.096Z,99.18
2022-09-16T03:23:48.764Z,98.79
2022-09-16T03:26:46.251Z,98.96
2022-09-16T03:29:18.381Z,98.74
2022-09-16T03:31:47.759Z,98.51
2022-09-16T03:34:21.452Z,99.09
2022-09-16T03:36:51.477Z,99.04
2022-09-16T03:39:18.036Z,98.49
2022-09-16T03:41:44.872Z,99.06
2022-09-16T03:44:11.531Z,98.71
2022-09-16T03:46:38.253Z,99.08
2022-09-16T03:49:05.020Z,99.30
2022-09-16T03:51:31.682Z,99.10
2022-09-16T03:53:58.289Z,98.95
2022-09-16T03:56:25.096Z,99.14
2022-09-16T03:58:51.808Z,98.76
2022-09-16T04:01:18.467Z,99.42
2022-09-16T04:03:45.162Z,98.99
2022-09-16T04:06:11.788Z,99.58
2022-09-16T04:08:38.553Z,99.80
2022-09-16T04:11:05.401Z,100.00
2022-09-16T04:13:32.876Z,100.00
2022-09-16T04:16:00.255Z,100.00
2022-09-16T04:18:27.236Z,100.00
2022-09-16T04:20:58.279Z,100.00
2022-09-16T04:23:26.280Z,100.00
2022-09-16T04:26:02.497Z,100.00
2022-09-16T04:28:29.693Z,99.67
2022-09-16T04:31:00.158Z,99.95
2022-09-16T04:33:28.805Z,99.46
2022-09-16T04:36:20.393Z,99.14
2022-09-16T04:38:47.862Z,99.62
2022-09-16T04:41:18.948Z,99.51
2022-09-16T04:43:46.176Z,99.63
2022-09-16T04:46:12.993Z,99.92
2022-09-16T04:48:39.795Z,99.74
2022-09-16T04:51:08.755Z,100.00
2022-09-16T04:53:35.923Z,100.00
2022-09-16T04:56:09.070Z,100.00
2022-09-16T04:58:36.275Z,100.00
2022-09-16T05:01:08.972Z,100.00
2022-09-16T05:03:35.928Z,100.00
2022-09-16T05:06:18.359Z,100.00
2022-09-16T05:08:47.095Z,100.00
2022-09-16T05:11:17.153Z,100.00
2022-09-16T05:13:44.107Z,100.00
2022-09-16T05:16:15.396Z,100.00
2022-09-16T05:18:42.873Z,100.00
2022-09-16T05:21:11.580Z,99.95
2022-09-16T05:23:39.811Z,100.00
2022-09-16T05:26:12.465Z,99.85
2022-09-16T05:28:39.251Z,99.63
2022-09-16T05:31:14.090Z,99.98
2022-09-16T05:34:00.276Z,99.26
2022-09-16T05:36:28.182Z,99.38
2022-09-16T05:39:20.880Z,99.66
2022-09-16T05:41:41.542Z,99.22
2022-09-16T05:44:08.494Z,98.90
2022-09-16T05:46:35.150Z,99.38
2022-09-16T05:49:01.992Z,98.89
2022-09-16T05:51:28.603Z,98.78
2022-09-16T05:53:55.342Z,98.72
2022-09-16T05:56:25.586Z,98.26
2022-09-16T05:58:53.127Z,98.60
2022-09-16T06:01:24.594Z,98.48
2022-09-16T06:03:51.583Z,97.91
2022-09-16T06:06:47.641Z,98.43
2022-09-16T06:09:16.491Z,97.26
2022-09-16T06:11:44.722Z,97.34
2022-09-16T06:14:11.446Z,96.50
2022-09-16T06:16:38.060Z,97.07
2022-09-16T06:19:06.537Z,96.90
2022-09-16T06:21:33.240Z,96.85
2022-09-16T06:23:59.997Z,96.07
2022-09-16T06:26:27.091Z,96.42
2022-09-16T06:28:53.952Z,96.11
2022-09-16T06:31:22.696Z,95.28
2022-09-16T06:33:49.949Z,94.90
2022-09-16T06:36:19.054Z,95.15
2022-09-16T06:38:46.059Z,95.39
2022-09-16T06:41:13.163Z,95.30
2022-09-16T06:43:39.932Z,94.11
2022-09-16T06:46:08.344Z,94.52
2022-09-16T06:48:36.326Z,94.03
2022-09-16T06:51:05.826Z,94.27
2022-09-16T06:53:32.699Z,94.10
2022-09-16T06:56:04.324Z,93.71
2022-09-16T06:58:36.022Z,93.93
2022-09-16T07:01:07.041Z,93.53
2022-09-16T07:03:34.196Z,94.21
2022-09-16T07:06:01.413Z,94.37
2022-09-16T07:08:31.768Z,94.18
2022-09-16T07:11:03.742Z,91.66
2022-09-16T07:13:30.537Z,91.70
2022-09-16T07:16:19.846Z,91.89
2022-09-16T07:18:46.629Z,90.74
2022-09-16T07:21:14.802Z,90.53
2022-09-16T07:23:41.876Z,90.22
2022-09-16T07:26:19.746Z,89.48
2022-09-16T07:28:48.942Z,88.59
2022-09-16T07:31:17.753Z,88.87
2022-09-16T07:33:46.187Z,88.12
2022-09-16T07:36:14.471Z,87.74
2022-09-16T07:38:41.120Z,87.19
2022-09-16T07:41:12.846Z,86.24
2022-09-16T07:43:40.175Z,85.85
2022-09-16T07:46:06.956Z,87.28
2022-09-16T07:48:35.119Z,88.71
2022-09-16T07:51:07.461Z,86.26
2022-09-16T07:53:34.195Z,86.69
2022-09-16T07:56:10.950Z,87.91
2022-09-16T07:58:37.678Z,87.85
2022-09-16T08:01:05.271Z,87.72
2022-09-16T08:03:38.841Z,87.33
2022-09-16T08:06:07.299Z,88.11
2022-09-16T08:08:34.107Z,85.88
2022-09-16T08:11:01.094Z,86.56
2022-09-16T08:13:28.858Z,87.77
2022-09-16T08:15:55.880Z,88.19
2022-09-16T08:18:23.887Z,87.19
2022-09-16T08:20:50.894Z,86.62
2022-09-16T08:23:17.851Z,86.20
2022-09-16T08:25:44.511Z,88.19
2022-09-16T08:28:15.146Z,88.74
2022-09-16T08:30:42.355Z,89.07
2022-09-16T08:33:09.084Z,89.54
2022-09-16T08:35:35.990Z,88.91
2022-09-16T08:38:02.647Z,87.14
2022-09-16T08:40:31.061Z,86.15
2022-09-16T08:43:18.862Z,87.33
2022-09-16T08:45:55.336Z,87.38
2022-09-16T08:48:31.138Z,83.93
2022-09-16T08:50:58.308Z,86.01
2022-09-16T08:53:38.922Z,85.34
2022-09-16T08:56:12.480Z,85.52
2022-09-16T08:58:44.574Z,85.51
2022-09-16T09:01:33.075Z,86.06
2022-09-16T09:03:59.908Z,86.92
2022-09-16T09:06:54.378Z,86.09
2022-09-16T09:09:33.107Z,85.93
2022-09-16T09:12:25.833Z,86.17
2022-09-16T09:15:07.312Z,86.43
2022-09-16T09:17:47.627Z,86.24
2022-09-16T09:20:26.966Z,86.36
2022-09-16T09:22:58.799Z,86.16
2022-09-16T09:25:34.366Z,85.72
2022-09-16T09:28:00.919Z,85.44
2022-09-16T09:30:27.981Z,86.12
2022-09-16T09:33:41.412Z,86.84
2022-09-16T09:36:12.169Z,87.03
2022-09-16T09:38:46.011Z,88.14
2022-09-16T09:41:15.844Z,87.51
2022-09-16T09:43:54.048Z,86.00
2022-09-16T09:46:23.621Z,86.59
2022-09-16T09:49:05.567Z,85.95
2022-09-16T09:51:32.198Z,86.07
2022-09-16T09:54:10.157Z,86.15
2022-09-16T09:56:40.198Z,85.81
2022-09-16T09:59:33.147Z,84.75
2022-09-16T10:01:59.911Z,84.89
2022-09-16T10:04:26.631Z,85.61
2022-09-16T10:06:54.400Z,85.17
2022-09-16T10:09:21.094Z,85.16
2022-09-16T10:11:50.051Z,85.78
2022-09-16T10:14:30.968Z,86.12
2022-09-16T10:17:02.058Z,86.26
2022-09-16T10:19:28.782Z,86.08
2022-09-16T10:21:57.337Z,87.67
2022-09-16T10:24:29.993Z,86.66
2022-09-16T10:26:57.380Z,87.01
2022-09-16T10:29:24.012Z,84.81
2022-09-16T10:31:50.838Z,84.66
2022-09-16T10:34:23.984Z,85.41
2022-09-16T10:37:11.805Z,85.51
2022-09-16T10:39:39.541Z,85.45
2022-09-16T10:42:20.655Z,84.54
2022-09-16T10:44:47.370Z,83.24
2022-09-16T10:47:20.475Z,83.10
2022-09-16T10:49:55.360Z,82.66
2022-09-16T10:52:26.149Z,82.58
2022-09-16T10:54:54.613Z,84.06
2022-09-16T10:57:31.750Z,83.46
2022-09-16T11:00:01.164Z,83.66
2022-09-16T11:02:52.440Z,84.79
2022-09-16T11:05:26.103Z,85.48
2022-09-16T11:08:17.694Z,84.50
2022-09-16T11:10:48.381Z,84.92
2022-09-16T11:13:23.477Z,85.33
2022-09-16T11:16:02.032Z,85.23
2022-09-16T11:18:52.874Z,84.21
2022-09-16T11:21:53.081Z,83.60
2022-09-16T11:24:38.573Z,84.50
2022-09-16T11:27:15.243Z,83.72
2022-09-16T11:29:50.274Z,84.80
2022-09-16T11:32:23.091Z,85.05
2022-09-16T11:35:12.091Z,84.34
2022-09-16T11:37:59.645Z,84.97
2022-09-16T11:40:57.512Z,85.81
2022-09-16T11:43:36.176Z,85.52
2022-09-16T11:46:21.289Z,85.88
2022-09-16T11:49:05.676Z,85.32
2022-09-16T11:51:50.925Z,86.04
2022-09-16T11:54:35.926Z,86.68
2022-09-16T11:57:04.844Z,87.32
2022-09-16T11:59:54.896Z,84.80
2022-09-16T12:02:58.782Z,85.62
2022-09-16T12:05:27.658Z,84.66
2022-09-16T12:08:04.841Z,85.42
2022-09-16T12:10:47.279Z,85.30
2022-09-16T12:13:22.995Z,86.50
2022-09-16T12:15:52.865Z,85.38
2022-09-16T12:18:26.274Z,86.24
2022-09-16T12:21:15.299Z,84.00
2022-09-16T12:24:04.174Z,85.14
2022-09-16T12:26:34.849Z,84.59
2022-09-16T12:29:22.600Z,82.07
2022-09-16T12:31:52.446Z,83.91
2022-09-16T12:35:03.866Z,82.82
2022-09-16T12:37:49.417Z,83.14
2022-09-16T12:40:26.878Z,85.11
2022-09-16T12:43:29.076Z,86.02
2022-09-16T12:46:21.507Z,84.12
2022-09-16T12:49:14.737Z,84.33
2022-09-16T12:51:48.229Z,85.46
2022-09-16T12:54:25.452Z,85.86
2022-09-16T12:57:21.526Z,84.21
2022-09-16T12:59:57.257Z,84.07
2022-09-16T13:02:27.311Z,84.04
2022-09-16T13:04:56.087Z,86.07
2022-09-16T13:07:32.441Z,86.48
2022-09-16T13:10:01.423Z,86.78
2022-09-16T13:12:45.022Z,85.63
2022-09-16T13:15:29.160Z,84.09
2022-09-16T13:17:56.159Z,82.39
2022-09-16T13:20:24.121Z,84.48
2022-09-16T13:23:02.842Z,84.99
2022-09-16T13:25:29.841Z,85.47
2022-09-16T13:28:04.482Z,84.27
2022-09-16T13:30:37.688Z,84.78
2022-09-16T13:33:10.122Z,84.46
2022-09-16T13:35:43.446Z,85.36
2022-09-16T13:38:19.131Z,85.00
2022-09-16T13:40:57.031Z,84.20
2022-09-16T13:43:37.959Z,82.45
2022-09-16T13:46:07.042Z,82.00
2022-09-16T13:48:40.362Z,83.30
2022-09-16T13:51:09.548Z,82.51
2022-09-16T13:53:43.686Z,84.20
2022-09-16T13:56:13.323Z,82.78
2022-09-16T13:59:08.577Z,82.56
2022-09-16T14:01:58.419Z,82.56
2022-09-16T14:04:57.133Z,82.11
2022-09-16T14:07:23.793Z,83.37
2022-09-16T14:10:00.791Z,82.71
2022-09-16T14:12:43.550Z,81.56
2022-09-16T14:15:10.222Z,81.00
2022-09-16T14:17:51.179Z,82.21
2022-09-16T14:20:20.260Z,80.97
2022-09-16T14:22:46.907Z,80.27
2022-09-16T14:25:30.040Z,81.48
2022-09-16T14:28:17.941Z,79.64
2022-09-16T14:30:49.101Z,81.38
2022-09-16T14:33:15.841Z,77.09
2022-09-16T14:35:44.733Z,77.48
2022-09-16T14:38:34.285Z,78.12
2022-09-16T14:40:59.167Z,77.27
2022-09-16T14:43:25.840Z,78.39
2022-09-16T14:45:54.675Z,79.94
2022-09-16T14:48:30.402Z,78.46
2022-09-16T14:50:57.016Z,79.14
2022-09-16T14:53:35.823Z,78.46
2022-09-16T14:56:04.751Z,78.37
2022-09-16T14:58:32.269Z,79.60
2022-09-16T15:01:08.863Z,77.78
2022-09-16T15:03:47.264Z,78.16
2022-09-16T15:06:18.909Z,77.81
2022-09-16T15:09:14.263Z,76.78
2022-09-16T15:12:07.276Z,78.06
2022-09-16T15:14:36.872Z,78.54
2022-09-16T15:17:03.573Z,78.24
2022-09-16T15:19:35.294Z,78.91
2022-09-16T15:22:03.911Z,79.76
2022-09-16T15:24:32.426Z,79.40
2022-09-16T15:26:59.196Z,79.36
2022-09-16T15:29:27.075Z,79.22
2022-09-16T15:31:53.735Z,79.23
2022-09-16T15:34:22.144Z,79.97
2022-09-16T15:36:52.250Z,80.82
2022-09-16T15:39:33.046Z,81.50
2022-09-16T15:42:20.208Z,80.19
2022-09-16T15:44:57.564Z,80.48
2022-09-16T15:47:25.901Z,80.44
2022-09-16T15:50:06.030Z,79.76
2022-09-16T15:52:34.058Z,79.96
2022-09-16T15:55:02.883Z,79.97
2022-09-16T15:57:35.733Z,79.74
2022-09-16T16:00:04.116Z,80.62
2022-09-16T16:02:34.966Z,80.26
2022-09-16T16:05:06.755Z,78.83
2022-09-16T16:07:47.990Z,79.23
2022-09-16T16:10:19.655Z,79.66
2022-09-16T16:12:47.187Z,79.63
2022-09-16T16:15:18.517Z,80.32
2022-09-16T16:17:45.552Z,80.86
2022-09-16T16:20:12.475Z,80.50
2022-09-16T16:22:39.627Z,81.90
2022-09-16T16:25:07.077Z,81.19
2022-09-16T16:27:33.919Z,81.39
2022-09-16T16:30:00.648Z,81.17
2022-09-16T16:32:29.328Z,81.93
2022-09-16T16:34:58.765Z,81.71
2022-09-16T16:37:45.473Z,82.64
2022-09-16T16:40:12.659Z,82.51
2022-09-16T16:42:39.359Z,82.97
2022-09-16T16:45:06.793Z,82.19
2022-09-16T16:47:33.458Z,81.77
2022-09-16T16:50:00.679Z,82.04
2022-09-16T16:52:27.649Z,81.50
2022-09-16T16:54:54.268Z,81.87
2022-09-16T16:57:20.880Z,82.40
2022-09-16T16:59:47.571Z,82.14
2022-09-16T17:02:14.177Z,82.45
2022-09-16T17:04:40.726Z,81.11
2022-09-16T17:09:54.183Z,82.50
2022-09-16T17:12:21.141Z,83.03
2022-09-16T17:14:47.728Z,82.84
2022-09-16T17:17:14.330Z,82.70
2022-09-16T17:19:40.944Z,82.92
2022-09-16T17:22:07.614Z,83.53
2022-09-16T17:24:34.113Z,84.12
2022-09-16T17:27:00.700Z,84.56
2022-09-16T17:29:27.655Z,84.60
2022-09-16T17:31:54.275Z,85.62
2022-09-16T17:34:20.812Z,85.02
2022-09-16T17:36:47.486Z,85.66
2022-09-16T17:39:16.279Z,86.24
2022-09-16T17:41:43.183Z,85.79
2022-09-16T17:44:10.258Z,86.37
2022-09-16T17:46:36.916Z,86.71
2022-09-16T17:49:05.838Z,87.42
2022-09-16T17:51:33.011Z,87.57
2022-09-16T17:53:59.744Z,87.69
2022-09-16T17:56:26.336Z,87.54
2022-09-16T17:58:53.375Z,88.35
2022-09-16T18:01:21.428Z,87.89
2022-09-16T18:03:49.324Z,88.04
2022-09-16T18:06:19.632Z,88.30
2022-09-16T18:08:46.318Z,88.38
2022-09-16T18:11:13.636Z,88.31
2022-09-16T18:13:40.698Z,88.70
2022-09-16T18:16:09.413Z,89.00
2022-09-16T18:18:36.636Z,88.82
2022-09-16T18:21:04.376Z,88.70
2022-09-16T18:23:31.885Z,89.39
2022-09-16T18:26:05.776Z,89.16
2022-09-16T18:28:51.703Z,90.22
2022-09-16T18:31:22.692Z,89.96
2022-09-16T18:33:53.276Z,90.01
2022-09-16T18:36:19.840Z,90.73
2022-09-16T18:38:46.388Z,89.97
2022-09-16T18:41:17.674Z,90.08
2022-09-16T18:43:45.103Z,90.44
2022-09-16T18:46:21.838Z,90.77
2022-09-16T18:48:51.310Z,90.73
2022-09-16T18:51:33.759Z,90.54
2022-09-16T18:54:02.871Z,89.92
2022-09-16T18:56:32.288Z,90.63
2022-09-16T18:59:22.128Z,90.36
2022-09-16T19:01:51.213Z,90.43
2022-09-16T19:04:20.276Z,91.19
2022-09-16T19:06:51.680Z,91.11
2022-09-16T19:09:19.297Z,90.81
2022-09-16T19:11:45.919Z,91.38
2022-09-16T19:14:12.686Z,91.50
2022-09-16T19:16:40.788Z,91.48
2022-09-16T19:19:08.102Z,91.91
2022-09-16T19:21:34.686Z,92.26
2022-09-16T19:24:02.949Z,92.05
2022-09-16T19:26:31.242Z,92.35
2022-09-16T19:28:58.243Z,92.48
2022-09-16T19:31:24.789Z,92.65
2022-09-16T19:33:51.408Z,92.49
2022-09-16T19:36:22.719Z,92.48
2022-09-16T19:38:49.762Z,93.36
2022-09-16T19:41:16.900Z,92.45
2022-09-16T19:43:43.478Z,93.46
2022-09-16T19:46:11.720Z,93.63
2022-09-16T19:48:39.720Z,93.88
2022-09-16T19:51:07.764Z,93.58
2022-09-16T19:53:35.054Z,94.22
2022-09-16T19:56:05.399Z,93.95
2022-09-16T19:58:32.689Z,94.46
2022-09-16T20:01:04.240Z,94.83
2022-09-16T20:03:32.081Z,95.18
2022-09-16T20:06:01.495Z,95.28
2022-09-16T20:08:28.106Z,95.48
2022-09-16T20:10:54.750Z,95.33
2022-09-16T20:13:21.272Z,95.98
2022-09-16T20:15:48.205Z,96.56
2022-09-16T20:18:14.866Z,97.62
2022-09-16T20:20:41.416Z,96.97
2022-09-16T20:23:08.075Z,96.88
2022-09-16T20:25:34.663Z,96.99
2022-09-16T20:28:01.432Z,97.05
2022-09-16T20:30:28.669Z,97.17
2022-09-16T20:32:55.424Z,97.23
2022-09-16T20:35:21.997Z,96.68
2022-09-16T20:37:48.542Z,96.52
2022-09-16T20:40:15.264Z,96.75
2022-09-16T20:42:41.876Z,96.80
2022-09-16T20:45:08.979Z,96.49
2022-09-16T20:47:35.660Z,96.69
2022-09-16T20:50:02.256Z,96.79
2022-09-16T20:52:28.804Z,96.90
2022-09-16T20:54:55.464Z,96.80
2022-09-16T20:57:22.079Z,97.52
2022-09-16T20:59:48.757Z,97.32
2022-09-16T21:02:15.403Z,96.79
2022-09-16T21:04:42.403Z,96.77
2022-09-16T21:07:09.294Z,96.51
2022-09-16T21:09:35.921Z,96.16
2022-09-16T21:12:02.633Z,96.38
2022-09-16T21:14:29.213Z,95.57
2022-09-16T21:16:55.832Z,95.79
2022-09-16T21:19:22.633Z,95.64
2022-09-16T21:21:49.682Z,95.49
2022-09-16T21:24:17.149Z,94.96
2022-09-16T21:26:43.945Z,95.27
2022-09-16T21:29:15.540Z,95.55
2022-09-16T21:31:42.584Z,96.44
2022-09-16T21:34:19.729Z,96.07
2022-09-16T21:36:47.996Z,96.65
2022-09-16T21:39:15.046Z,96.10
2022-09-16T21:41:42.293Z,96.15
2022-09-16T21:44:09.020Z,96.30
2022-09-16T21:46:37.535Z,96.87
2022-09-16T21:49:04.427Z,96.75
2022-09-16T21:51:32.738Z,96.53
2022-09-16T21:53:59.419Z,96.68
2022-09-16T21:56:26.106Z,96.26
2022-09-16T21:58:53.737Z,95.90
2022-09-16T22:01:24.883Z,96.54
2022-09-16T22:03:59.686Z,95.20
2022-09-16T22:06:26.426Z,95.29
2022-09-16T22:08:53.874Z,95.12
2022-09-16T22:11:21.860Z,94.18
2022-09-16T22:13:48.670Z,94.70
2022-09-16T22:16:19.185Z,93.86
2022-09-16T22:18:46.126Z,93.92
2022-09-16T22:21:13.880Z,94.28
2022-09-16T22:23:41.199Z,94.51
2022-09-16T22:26:09.626Z,94.97
2022-09-16T22:28:36.299Z,94.84
2022-09-16T22:31:07.768Z,95.37
2022-09-16T22:33:35.246Z,95.77
2022-09-16T22:36:03.841Z,94.79
2022-09-16T22:38:30.806Z,94.94
2022-09-16T22:41:03.865Z,94.22
2022-09-16T22:43:40.564Z,93.95
2022-09-16T22:46:08.716Z,94.75
2022-09-16T22:48:35.363Z,94.56
2022-09-16T22:51:02.302Z,94.37
2022-09-16T22:53:29.108Z,94.19
2022-09-16T22:55:57.389Z,94.30
2022-09-16T22:58:24.633Z,94.53
2022-09-16T23:00:52.013Z,94.78
2022-09-16T23:03:19.068Z,94.87
2022-09-16T23:05:56.290Z,93.68
2022-09-16T23:08:23.480Z,93.60
2022-09-16T23:10:50.464Z,94.20
2022-09-16T23:13:17.621Z,94.06
2022-09-16T23:15:44.363Z,94.48
2022-09-16T23:18:11.382Z,93.19
2022-09-16T23:20:37.937Z,93.20
2022-09-16T23:23:05.391Z,94.01
2022-09-16T23:25:32.098Z,93.84
2022-09-16T23:27:58.685Z,93.37
2022-09-16T23:30:25.347Z,93.43
2022-09-16T23:32:51.966Z,93.86
2022-09-16T23:35:18.844Z,93.57
2022-09-16T23:37:45.461Z,93.67
2022-09-16T23:40:12.137Z,94.51
2022-09-16T23:42:38.876Z,94.07
2022-09-16T23:45:05.967Z,95.20
2022-09-16T23:47:32.576Z,94.08
2022-09-16T23:49:59.137Z,94.70
2022-09-16T23:52:25.711Z,94.23
2022-09-16T23:54:52.336Z,94.42
2022-09-16T23:57:18.861Z,94.85
2022-09-16T23:59:45.541Z,94.54
